createdAt,value
2023-02-20T00:00:57.822Z,5.40
2023-02-20T00:01:57.842Z,5.30
2023-02-20T00:02:57.804Z,5.00
2023-02-20T00:03:57.812Z,5.20
2023-02-20T00:04:57.785Z,5.10
2023-02-20T00:05:57.782Z,5.60
2023-02-20T00:06:57.804Z,5.30
2023-02-20T00:07:57.770Z,5.60
2023-02-20T00:08:57.764Z,5.40
2023-02-20T00:09:57.755Z,5.40
2023-02-20T00:10:57.743Z,5.70
2023-02-20T00:11:57.772Z,5.90
2023-02-20T00:12:57.726Z,5.90
2023-02-20T00:13:57.730Z,6.30
2023-02-20T00:14:57.722Z,6.60
2023-02-20T00:15:57.730Z,6.30
2023-02-20T00:16:57.730Z,6.50
2023-02-20T00:17:57.688Z,6.90
2023-02-20T00:18:57.688Z,6.60
2023-02-20T00:19:57.673Z,6.70
2023-02-20T00:20:57.671Z,6.70
2023-02-20T00:21:57.667Z,6.70
2023-02-20T00:22:57.682Z,6.90
2023-02-20T00:23:57.641Z,6.90
2023-02-20T00:24:57.635Z,7.10
2023-02-20T00:25:57.620Z,6.90
2023-02-20T00:26:57.615Z,6.90
2023-02-20T00:27:57.632Z,7.30
2023-02-20T00:28:57.604Z,7.40
2023-02-20T00:29:57.655Z,7.10
2023-02-20T00:30:57.626Z,7.00
2023-02-20T00:31:57.622Z,6.80
2023-02-20T00:32:57.600Z,7.00
2023-02-20T00:33:57.565Z,6.60
2023-02-20T00:34:57.565Z,6.70
2023-02-20T00:35:57.554Z,6.40
2023-02-20T00:36:57.561Z,6.70
2023-02-20T00:37:58.567Z,6.50
2023-02-20T00:38:57.529Z,6.90
2023-02-20T00:39:57.524Z,6.80
2023-02-20T00:40:57.517Z,6.80
2023-02-20T00:41:57.516Z,6.90
2023-02-20T00:42:57.542Z,6.80
2023-02-20T00:43:57.502Z,7.10
2023-02-20T00:44:57.496Z,7.10
2023-02-20T00:45:57.503Z,7.10
2023-02-20T00:46:57.499Z,6.70
2023-02-20T00:47:57.497Z,6.80
2023-02-20T00:48:57.468Z,7.10
2023-02-20T00:49:57.464Z,7.00
2023-02-20T00:50:57.444Z,6.80
2023-02-20T00:51:57.437Z,6.80
2023-02-20T00:52:57.477Z,7.40
2023-02-20T00:53:57.425Z,7.50
2023-02-20T00:54:57.418Z,7.30
2023-02-20T00:55:57.408Z,6.80
2023-02-20T00:56:57.416Z,7.00
2023-02-20T00:57:57.431Z,6.90
2023-02-20T00:58:57.383Z,7.00
2023-02-20T00:59:57.385Z,6.60
2023-02-20T01:00:57.383Z,6.30
2023-02-20T01:01:57.421Z,6.30
2023-02-20T01:02:57.448Z,6.60
2023-02-20T01:03:57.348Z,7.40
2023-02-20T01:04:57.349Z,6.70
2023-02-20T01:05:57.353Z,7.00
2023-02-20T01:06:57.332Z,7.00
2023-02-20T01:07:57.337Z,7.60
2023-02-20T01:08:57.316Z,7.30
2023-02-20T01:09:57.304Z,8.00
2023-02-20T01:10:57.295Z,7.30
2023-02-20T01:11:57.301Z,6.80
2023-02-20T01:12:57.310Z,7.10
2023-02-20T01:13:57.280Z,6.80
2023-02-20T01:14:57.264Z,6.80
2023-02-20T01:15:57.312Z,6.50
2023-02-20T01:16:57.249Z,7.40
2023-02-20T01:17:57.265Z,7.10
2023-02-20T01:18:57.244Z,6.80
2023-02-20T01:19:57.226Z,7.10
2023-02-20T01:20:57.215Z,7.20
2023-02-20T01:21:57.207Z,7.00
2023-02-20T01:22:57.218Z,6.70
2023-02-20T01:23:57.195Z,6.50
2023-02-20T01:24:57.186Z,7.10
2023-02-20T01:25:57.175Z,6.90
2023-02-20T01:26:57.175Z,7.20
2023-02-20T01:27:57.188Z,6.80
2023-02-20T01:28:57.169Z,6.50
2023-02-20T01:29:57.145Z,6.40
2023-02-20T01:30:57.172Z,6.50
2023-02-20T01:31:57.278Z,6.30
2023-02-20T01:32:57.156Z,6.10
2023-02-20T01:33:57.143Z,6.40
2023-02-20T01:34:57.125Z,6.10
2023-02-20T01:35:57.103Z,6.10
2023-02-20T01:36:57.094Z,6.20
2023-02-20T01:37:57.120Z,6.40
2023-02-20T01:38:57.079Z,6.70
2023-02-20T01:39:57.080Z,6.50
2023-02-20T01:40:57.068Z,6.60
2023-02-20T01:41:57.058Z,6.00
2023-02-20T01:42:57.078Z,6.70
2023-02-20T01:43:57.046Z,6.20
2023-02-20T01:44:57.030Z,6.10
2023-02-20T01:45:57.038Z,6.10
2023-02-20T01:46:57.057Z,6.60
2023-02-20T01:47:57.048Z,6.60
2023-02-20T01:48:57.018Z,6.40
2023-02-20T01:49:56.995Z,6.50
2023-02-20T01:50:57.987Z,6.40
2023-02-20T01:51:56.992Z,6.40
2023-02-20T01:52:57.007Z,6.20
2023-02-20T01:53:56.975Z,6.00
2023-02-20T01:54:56.971Z,6.00
2023-02-20T01:55:56.985Z,6.60
2023-02-20T01:56:56.986Z,6.50
2023-02-20T01:57:56.968Z,6.70
2023-02-20T01:58:56.948Z,6.40
2023-02-20T01:59:56.920Z,6.40
2023-02-20T02:00:56.971Z,6.20
2023-02-20T02:01:56.954Z,6.40
2023-02-20T02:02:56.932Z,6.50
2023-02-20T02:03:56.891Z,6.80
2023-02-20T02:04:56.893Z,6.20
2023-02-20T02:05:56.894Z,6.60
2023-02-20T02:06:56.880Z,6.40
2023-02-20T02:07:56.899Z,6.20
2023-02-20T02:08:56.870Z,6.50
2023-02-20T02:09:56.851Z,6.50
2023-02-20T02:10:56.836Z,6.50
2023-02-20T02:11:56.835Z,6.40
2023-02-20T02:12:56.844Z,6.70
2023-02-20T02:13:56.814Z,6.50
2023-02-20T02:14:56.810Z,6.10
2023-02-20T02:15:56.837Z,6.00
2023-02-20T02:16:56.798Z,6.10
2023-02-20T02:17:56.807Z,6.50
2023-02-20T02:18:56.767Z,6.30
2023-02-20T02:19:57.761Z,6.30
2023-02-20T02:20:56.750Z,6.40
2023-02-20T02:21:56.753Z,6.80
2023-02-20T02:22:56.768Z,6.50
2023-02-20T02:23:56.735Z,6.20
2023-02-20T02:24:56.729Z,6.40
2023-02-20T02:25:56.717Z,6.50
2023-02-20T02:26:56.714Z,7.30
2023-02-20T02:27:56.724Z,7.20
2023-02-20T02:28:56.694Z,6.80
2023-02-20T02:29:56.678Z,7.00
2023-02-20T02:30:56.703Z,6.90
2023-02-20T02:31:56.769Z,6.90
2023-02-20T02:32:56.689Z,6.90
2023-02-20T02:33:56.655Z,6.80
2023-02-20T02:34:56.653Z,6.90
2023-02-20T02:35:56.642Z,7.10
2023-02-20T02:36:56.627Z,7.00
2023-02-20T02:37:56.657Z,7.00
2023-02-20T02:38:56.618Z,7.30
2023-02-20T02:39:56.612Z,7.30
2023-02-20T02:40:56.592Z,7.30
2023-02-20T02:41:57.596Z,7.50
2023-02-20T02:42:56.623Z,7.80
2023-02-20T02:43:56.585Z,7.20
2023-02-20T02:44:56.575Z,7.30
2023-02-20T02:45:56.599Z,7.60
2023-02-20T02:46:56.558Z,7.80
2023-02-20T02:47:56.556Z,7.90
2023-02-20T02:48:56.567Z,7.70
2023-02-20T02:49:56.547Z,7.90
2023-02-20T02:50:56.535Z,8.30
2023-02-20T02:51:56.522Z,8.00
2023-02-20T02:52:56.511Z,8.70
2023-02-20T02:53:56.527Z,8.90
2023-02-20T02:54:56.496Z,9.20
2023-02-20T02:55:56.499Z,9.10
2023-02-20T02:56:56.476Z,9.40
2023-02-20T02:57:56.474Z,9.60
2023-02-20T02:58:56.490Z,9.80
2023-02-20T02:59:56.470Z,9.30
2023-02-20T03:00:56.452Z,10.00
2023-02-20T03:01:57.443Z,10.10
2023-02-20T03:02:56.437Z,10.60
2023-02-20T03:03:56.463Z,10.20
2023-02-20T03:04:56.425Z,11.10
2023-02-20T03:05:56.426Z,10.70
2023-02-20T03:06:56.405Z,11.10
2023-02-20T03:07:56.405Z,11.20
2023-02-20T03:08:56.426Z,10.90
2023-02-20T03:09:56.393Z,11.00
2023-02-20T03:10:56.378Z,10.90
2023-02-20T03:11:56.376Z,11.90
2023-02-20T03:12:56.358Z,12.00
2023-02-20T03:13:56.380Z,12.10
2023-02-20T03:14:56.384Z,12.40
2023-02-20T03:15:56.345Z,12.20
2023-02-20T03:16:56.344Z,12.30
2023-02-20T03:17:56.329Z,12.40
2023-02-20T03:18:56.358Z,12.40
2023-02-20T03:19:56.316Z,12.20
2023-02-20T03:20:56.317Z,11.80
2023-02-20T03:21:56.296Z,12.50
2023-02-20T03:22:56.289Z,12.50
2023-02-20T03:23:56.310Z,12.40
2023-02-20T03:24:56.275Z,12.40
2023-02-20T03:25:56.274Z,12.50
2023-02-20T03:26:56.269Z,12.30
2023-02-20T03:27:56.255Z,13.30
2023-02-20T03:28:56.287Z,12.80
2023-02-20T03:29:56.243Z,13.10
2023-02-20T03:30:56.241Z,13.20
2023-02-20T03:31:56.312Z,13.50
2023-02-20T03:32:56.215Z,13.40
2023-02-20T03:33:56.236Z,13.80
2023-02-20T03:34:56.205Z,13.80
2023-02-20T03:35:56.224Z,14.00
2023-02-20T03:36:56.194Z,13.70
2023-02-20T03:37:56.179Z,13.40
2023-02-20T03:38:56.200Z,13.70
2023-02-20T03:39:56.166Z,13.10
2023-02-20T03:40:56.163Z,13.20
2023-02-20T03:41:56.144Z,13.00
2023-02-20T03:42:56.141Z,14.50
2023-02-20T03:43:56.166Z,13.90
2023-02-20T03:44:56.129Z,13.90
2023-02-20T03:45:56.153Z,13.90
2023-02-20T03:46:56.109Z,14.20
2023-02-20T03:47:56.106Z,14.70
2023-02-20T03:48:56.128Z,15.10
2023-02-20T03:49:56.087Z,14.70
2023-02-20T03:50:56.076Z,14.50
2023-02-20T03:51:56.076Z,14.70
2023-02-20T03:52:56.081Z,14.30
2023-02-20T03:53:56.081Z,14.30
2023-02-20T03:54:56.049Z,15.20
2023-02-20T03:55:56.035Z,15.80
2023-02-20T03:56:56.027Z,15.60
2023-02-20T03:57:56.021Z,15.30
2023-02-20T03:58:56.011Z,15.80
2023-02-20T03:59:56.033Z,15.50
2023-02-20T04:00:56.057Z,15.90
2023-02-20T04:01:56.003Z,15.80
2023-02-20T04:02:55.988Z,17.10
2023-02-20T04:03:55.998Z,16.50
2023-02-20T04:04:56.000Z,16.40
2023-02-20T04:05:55.993Z,16.40
2023-02-20T04:06:55.956Z,16.50
2023-02-20T04:07:55.946Z,16.80
2023-02-20T04:08:55.943Z,16.30
2023-02-20T04:09:55.973Z,16.90
2023-02-20T04:10:55.925Z,17.10
2023-02-20T04:11:55.921Z,16.90
2023-02-20T04:12:55.913Z,16.90
2023-02-20T04:13:55.907Z,17.90
2023-02-20T04:14:55.922Z,17.60
2023-02-20T04:15:55.888Z,17.50
2023-02-20T04:16:55.949Z,18.00
2023-02-20T04:17:55.876Z,18.50
2023-02-20T04:18:55.870Z,17.60
2023-02-20T04:19:55.885Z,18.00
2023-02-20T04:20:55.860Z,17.70
2023-02-20T04:21:55.863Z,18.00
2023-02-20T04:22:55.839Z,18.40
2023-02-20T04:23:55.829Z,17.50
2023-02-20T04:24:55.829Z,17.70
2023-02-20T04:25:56.814Z,18.40
2023-02-20T04:26:55.804Z,18.60
2023-02-20T04:27:55.805Z,18.60
2023-02-20T04:28:55.797Z,19.60
2023-02-20T04:29:55.841Z,18.70
2023-02-20T04:30:55.782Z,19.00
2023-02-20T04:31:55.803Z,19.20
2023-02-20T04:32:55.761Z,18.90
2023-02-20T04:33:55.769Z,18.80
2023-02-20T04:34:55.764Z,18.70
2023-02-20T04:35:55.732Z,18.90
2023-02-20T04:36:55.725Z,19.90
2023-02-20T04:37:55.718Z,18.20
2023-02-20T04:38:55.710Z,18.80
2023-02-20T04:39:55.733Z,19.10
2023-02-20T04:40:55.689Z,18.40
2023-02-20T04:41:55.692Z,18.00
2023-02-20T04:42:55.677Z,19.40
2023-02-20T04:43:55.672Z,18.70
2023-02-20T04:44:55.695Z,19.60
2023-02-20T04:45:55.760Z,19.20
2023-02-20T04:46:55.668Z,18.90
2023-02-20T04:47:55.642Z,20.10
2023-02-20T04:48:55.650Z,18.70
2023-02-20T04:49:55.672Z,19.10
2023-02-20T04:50:55.626Z,19.50
2023-02-20T04:51:55.613Z,18.80
2023-02-20T04:52:55.603Z,18.80
2023-02-20T04:53:55.592Z,18.60
2023-02-20T04:54:55.632Z,19.00
2023-02-20T04:55:55.579Z,19.00
2023-02-20T04:56:55.574Z,18.50
2023-02-20T04:57:55.564Z,18.70
2023-02-20T04:58:55.558Z,18.80
2023-02-20T04:59:55.550Z,18.50
2023-02-20T05:00:55.571Z,18.60
2023-02-20T05:01:55.539Z,18.40
2023-02-20T05:02:55.535Z,18.60
2023-02-20T05:03:55.519Z,18.50
2023-02-20T05:04:55.522Z,18.10
2023-02-20T05:05:55.558Z,17.90
2023-02-20T05:06:55.500Z,17.70
2023-02-20T05:07:55.499Z,17.60
2023-02-20T05:08:55.485Z,17.90
2023-02-20T05:09:55.479Z,17.60
2023-02-20T05:10:55.499Z,17.40
2023-02-20T05:11:55.469Z,16.90
2023-02-20T05:12:55.459Z,17.30
2023-02-20T05:13:55.458Z,17.40
2023-02-20T05:14:55.813Z,17.20
2023-02-20T05:15:56.503Z,17.10
2023-02-20T05:16:55.434Z,16.40
2023-02-20T05:17:55.432Z,17.10
2023-02-20T05:18:55.437Z,16.40
2023-02-20T05:19:55.408Z,17.10
2023-02-20T05:20:55.425Z,17.00
2023-02-20T05:21:55.388Z,19.20
2023-02-20T05:22:55.386Z,17.60
2023-02-20T05:23:55.379Z,17.10
2023-02-20T05:24:55.371Z,17.10
2023-02-20T05:25:55.387Z,16.80
2023-02-20T05:26:55.377Z,16.90
2023-02-20T05:27:55.351Z,16.20
2023-02-20T05:28:55.344Z,15.90
2023-02-20T05:29:55.335Z,16.10
2023-02-20T05:30:55.357Z,15.60
2023-02-20T05:31:55.369Z,16.10
2023-02-20T05:32:55.325Z,14.90
2023-02-20T05:33:55.307Z,14.10
2023-02-20T05:34:55.353Z,13.00
2023-02-20T05:35:55.314Z,13.50
2023-02-20T05:36:55.285Z,13.60
2023-02-20T05:37:55.278Z,13.80
2023-02-20T05:38:55.264Z,13.40
2023-02-20T05:39:55.258Z,13.60
2023-02-20T05:40:55.275Z,13.20
2023-02-20T05:41:55.247Z,13.20
2023-02-20T05:42:55.228Z,12.60
2023-02-20T05:43:55.226Z,13.30
2023-02-20T05:44:55.231Z,13.10
2023-02-20T05:45:55.222Z,12.70
2023-02-20T05:46:56.207Z,12.60
2023-02-20T05:47:55.195Z,12.70
2023-02-20T05:48:55.191Z,12.40
2023-02-20T05:49:55.177Z,12.70
2023-02-20T05:50:55.194Z,11.90
2023-02-20T05:51:55.162Z,12.10
2023-02-20T05:52:55.159Z,12.00
2023-02-20T05:53:55.152Z,12.60
2023-02-20T05:54:55.145Z,12.30
2023-02-20T05:55:55.155Z,11.90
2023-02-20T05:56:55.136Z,11.50
2023-02-20T05:57:55.121Z,11.40
2023-02-20T05:58:55.124Z,11.80
2023-02-20T05:59:55.102Z,11.40
2023-02-20T06:00:55.835Z,11.30
2023-02-20T06:01:55.096Z,11.10
2023-02-20T06:02:55.086Z,11.60
2023-02-20T06:03:55.126Z,11.60
2023-02-20T06:04:55.098Z,11.50
2023-02-20T06:05:55.057Z,11.80
2023-02-20T06:06:56.080Z,11.90
2023-02-20T06:07:55.036Z,11.80
2023-02-20T06:08:55.036Z,12.20
2023-02-20T06:09:57.258Z,11.70
2023-02-20T06:10:55.020Z,12.20
2023-02-20T06:11:55.046Z,12.50
2023-02-20T06:12:55.006Z,11.90
2023-02-20T06:13:56.014Z,11.90
2023-02-20T06:14:55.000Z,11.30
2023-02-20T06:15:55.003Z,11.70
2023-02-20T06:16:55.003Z,10.80
2023-02-20T06:17:54.972Z,11.00
2023-02-20T06:18:54.973Z,11.20
2023-02-20T06:19:54.987Z,12.10
2023-02-20T06:20:54.940Z,10.90
2023-02-20T06:21:54.961Z,11.40
2023-02-20T06:22:54.928Z,11.30
2023-02-20T06:23:54.928Z,11.60
2023-02-20T06:24:54.911Z,11.50
2023-02-20T06:25:54.906Z,12.10
2023-02-20T06:26:54.921Z,11.60
2023-02-20T06:27:54.893Z,11.30
2023-02-20T06:28:54.912Z,11.50
2023-02-20T06:29:54.885Z,11.20
2023-02-20T06:30:54.868Z,11.10
2023-02-20T06:31:54.959Z,10.90
2023-02-20T06:32:54.848Z,11.00
2023-02-20T06:33:54.855Z,11.40
2023-02-20T06:34:54.839Z,11.50
2023-02-20T06:35:54.829Z,11.00
2023-02-20T06:36:54.840Z,11.20
2023-02-20T06:37:54.839Z,12.00
2023-02-20T06:38:57.446Z,11.20
2023-02-20T06:39:55.798Z,11.30
2023-02-20T06:40:54.800Z,11.30
2023-02-20T06:41:54.809Z,11.30
2023-02-20T06:42:54.771Z,11.40
2023-02-20T06:43:54.785Z,11.10
2023-02-20T06:44:54.765Z,10.90
2023-02-20T06:45:54.753Z,11.00
2023-02-20T06:46:54.818Z,11.00
2023-02-20T06:47:54.736Z,11.30
2023-02-20T06:48:54.743Z,11.60
2023-02-20T06:49:54.756Z,11.60
2023-02-20T06:50:54.714Z,11.20
2023-02-20T06:51:54.768Z,11.10
2023-02-20T06:52:54.697Z,11.00
2023-02-20T06:53:54.688Z,10.90
2023-02-20T06:54:54.677Z,10.60
2023-02-20T06:55:54.679Z,10.40
2023-02-20T06:56:54.686Z,10.70
2023-02-20T06:57:54.663Z,10.10
2023-02-20T06:58:54.649Z,10.60
2023-02-20T06:59:54.648Z,10.70
2023-02-20T07:00:54.644Z,10.70
2023-02-20T07:01:54.671Z,10.90
2023-02-20T07:02:54.621Z,11.00
2023-02-20T07:03:54.607Z,10.70
2023-02-20T07:04:54.602Z,11.10
2023-02-20T07:05:54.588Z,10.60
2023-02-20T07:06:54.612Z,10.90
2023-02-20T07:07:54.593Z,10.70
2023-02-20T07:08:54.581Z,10.70
2023-02-20T07:09:54.548Z,11.40
2023-02-20T07:10:55.552Z,11.00
2023-02-20T07:11:54.586Z,10.80
2023-02-20T07:12:54.548Z,10.60
2023-02-20T07:13:54.530Z,10.60
2023-02-20T07:14:54.524Z,10.60
2023-02-20T07:15:54.579Z,10.70
2023-02-20T07:16:54.500Z,10.20
2023-02-20T07:17:55.522Z,10.30
2023-02-20T07:18:54.493Z,10.90
2023-02-20T07:19:54.494Z,10.90
2023-02-20T07:20:55.221Z,10.60
2023-02-20T07:21:55.481Z,10.90
2023-02-20T07:22:54.504Z,10.60
2023-02-20T07:23:54.490Z,10.90
2023-02-20T07:24:54.462Z,10.90
2023-02-20T07:25:54.453Z,10.20
2023-02-20T07:27:39.457Z,9.80
2023-02-20T07:28:39.437Z,10.30
2023-02-20T07:29:39.430Z,9.80
2023-02-20T07:30:39.460Z,10.10
2023-02-20T07:31:39.555Z,10.20
2023-02-20T07:32:39.431Z,10.10
2023-02-20T07:33:39.398Z,10.20
2023-02-20T07:34:39.398Z,9.90
2023-02-20T07:35:39.382Z,10.30
2023-02-20T07:36:39.376Z,10.50
2023-02-20T07:37:39.392Z,10.40
2023-02-20T07:38:39.360Z,9.70
2023-02-20T07:39:39.347Z,9.80
2023-02-20T07:40:40.253Z,9.80
2023-02-20T07:41:39.333Z,9.90
2023-02-20T07:42:39.353Z,10.30
2023-02-20T07:43:39.313Z,10.20
2023-02-20T07:44:39.326Z,10.10
2023-02-20T07:45:39.527Z,9.80
2023-02-20T07:46:39.302Z,10.00
2023-02-20T07:47:39.330Z,9.70
2023-02-20T07:48:39.302Z,10.10
2023-02-20T07:49:39.277Z,10.00
2023-02-20T07:50:39.265Z,10.10
2023-02-20T07:51:39.300Z,10.00
2023-02-20T07:52:39.256Z,10.30
2023-02-20T07:53:39.264Z,10.40
2023-02-20T07:54:39.254Z,10.70
2023-02-20T07:55:39.240Z,9.90
2023-02-20T07:56:39.226Z,10.50
2023-02-20T07:57:39.205Z,10.00
2023-02-20T07:58:39.229Z,10.60
2023-02-20T07:59:39.197Z,10.10
2023-02-20T08:00:39.191Z,10.00
2023-02-20T08:01:39.193Z,10.00
2023-02-20T08:02:39.180Z,10.00
2023-02-20T08:03:39.192Z,10.10
2023-02-20T08:04:39.180Z,9.80
2023-02-20T08:05:48.633Z,10.20
2023-02-20T08:06:40.647Z,10.40
2023-02-20T08:07:39.134Z,10.30
2023-02-20T08:08:39.148Z,10.40
2023-02-20T08:09:39.116Z,10.30
2023-02-20T08:10:39.115Z,10.10
2023-02-20T08:11:39.121Z,10.90
2023-02-20T08:12:39.099Z,10.20
2023-02-20T08:13:39.124Z,11.20
2023-02-20T08:14:40.223Z,10.60
2023-02-20T08:15:40.212Z,10.20
2023-02-20T08:16:40.309Z,10.10
2023-02-20T08:17:46.420Z,10.30
2023-02-20T08:18:42.205Z,10.70
2023-02-20T08:19:40.176Z,10.80
2023-02-20T08:20:40.171Z,10.60
2023-02-20T08:21:40.165Z,10.20
2023-02-20T08:22:42.129Z,10.40
2023-02-20T08:23:41.174Z,10.10
2023-02-20T08:24:40.150Z,9.90
2023-02-20T08:25:40.137Z,10.40
2023-02-20T08:26:40.153Z,10.10
2023-02-20T08:27:40.113Z,10.20
2023-02-20T08:28:40.176Z,9.90
2023-02-20T08:29:40.092Z,10.90
2023-02-20T08:30:40.271Z,10.50
2023-02-20T08:31:40.180Z,10.30
2023-02-20T08:32:40.152Z,9.80
2023-02-20T08:33:40.098Z,9.60
2023-02-20T08:34:40.063Z,9.90
2023-02-20T08:35:40.082Z,9.90
2023-02-20T08:36:40.043Z,9.80
2023-02-20T08:37:40.056Z,9.60
2023-02-20T08:38:40.061Z,9.80
2023-02-20T08:39:40.026Z,9.40
2023-02-20T08:40:40.015Z,9.30
2023-02-20T08:41:40.010Z,9.50
2023-02-20T08:42:40.010Z,9.30
2023-02-20T08:43:40.030Z,9.30
2023-02-20T08:44:39.992Z,9.20
2023-02-20T08:45:40.006Z,9.30
2023-02-20T08:46:39.966Z,8.70
2023-02-20T08:47:39.960Z,9.20
2023-02-20T08:48:39.980Z,8.90
2023-02-20T08:49:39.937Z,9.10
2023-02-20T08:50:39.945Z,9.20
2023-02-20T08:51:39.930Z,9.10
2023-02-20T08:52:39.922Z,8.90
2023-02-20T08:53:39.941Z,8.60
2023-02-20T08:54:39.904Z,8.60
2023-02-20T08:55:39.894Z,8.20
2023-02-20T08:56:40.894Z,8.30
2023-02-20T08:57:39.877Z,8.30
2023-02-20T08:58:39.897Z,8.40
2023-02-20T08:59:39.874Z,8.60
2023-02-20T09:00:39.909Z,8.40
2023-02-20T09:01:39.922Z,8.60
2023-02-20T09:02:39.893Z,8.60
2023-02-20T09:03:39.856Z,8.70
2023-02-20T09:04:39.832Z,8.10
2023-02-20T09:05:39.828Z,8.00
2023-02-20T09:06:39.809Z,8.50
2023-02-20T09:07:39.802Z,8.50
2023-02-20T09:08:39.850Z,8.30
2023-02-20T09:09:39.791Z,8.20
2023-02-20T09:10:39.778Z,8.20
2023-02-20T09:11:39.764Z,7.90
2023-02-20T09:12:39.773Z,7.50
2023-02-20T09:13:39.786Z,7.60
2023-02-20T09:14:39.755Z,7.40
2023-02-20T09:15:39.798Z,7.40
2023-02-20T09:16:39.740Z,6.90
2023-02-20T09:17:39.734Z,6.70
2023-02-20T09:18:39.718Z,7.20
2023-02-20T09:19:39.768Z,7.70
2023-02-20T09:20:39.709Z,7.60
2023-02-20T09:21:39.697Z,7.40
2023-02-20T09:22:39.686Z,7.80
2023-02-20T09:23:39.685Z,7.60
2023-02-20T09:24:39.693Z,7.80
2023-02-20T09:25:39.663Z,7.50
2023-02-20T09:26:39.652Z,7.60
2023-02-20T09:27:39.647Z,7.20
2023-02-20T09:28:39.638Z,7.30
2023-02-20T09:29:39.657Z,7.30
2023-02-20T09:30:39.872Z,7.10
2023-02-20T09:31:39.747Z,7.00
2023-02-20T09:32:39.717Z,6.60
2023-02-20T09:33:39.597Z,6.70
2023-02-20T09:34:39.624Z,6.60
2023-02-20T09:35:39.590Z,6.50
2023-02-20T09:36:39.586Z,6.60
2023-02-20T09:37:39.568Z,6.20
2023-02-20T09:38:39.564Z,6.10
2023-02-20T09:39:39.584Z,5.90
2023-02-20T09:40:39.543Z,5.40
2023-02-20T09:41:39.550Z,5.70
2023-02-20T09:42:39.533Z,5.60
2023-02-20T09:43:39.522Z,5.70
2023-02-20T09:44:39.537Z,5.10
2023-02-20T09:45:39.563Z,4.80
2023-02-20T09:46:39.502Z,4.40
2023-02-20T09:47:39.542Z,4.10
2023-02-20T09:48:39.488Z,4.00
2023-02-20T09:49:39.511Z,4.10
2023-02-20T09:50:39.471Z,4.10
2023-02-20T09:51:39.474Z,3.60
2023-02-20T09:52:39.456Z,3.40
2023-02-20T09:53:39.451Z,3.10
2023-02-20T09:54:39.477Z,3.00
2023-02-20T09:55:39.464Z,3.10
2023-02-20T09:56:39.419Z,3.00
2023-02-20T09:57:39.415Z,3.00
2023-02-20T09:58:39.408Z,3.00
2023-02-20T09:59:39.456Z,3.30
2023-02-20T10:00:39.401Z,3.20
2023-02-20T10:01:39.392Z,3.00
2023-02-20T10:02:39.482Z,3.10
2023-02-20T10:03:39.370Z,3.00
2023-02-20T10:04:40.058Z,3.30
2023-02-20T10:05:39.348Z,3.50
2023-02-20T10:06:39.363Z,2.90
2023-02-20T10:07:39.414Z,2.90
2023-02-20T10:08:39.331Z,2.90
2023-02-20T10:09:39.356Z,3.30
2023-02-20T10:10:39.553Z,2.90
2023-02-20T10:11:39.309Z,3.20
2023-02-20T10:12:39.324Z,3.40
2023-02-20T10:13:39.299Z,3.60
2023-02-20T10:14:39.321Z,3.30
2023-02-20T10:15:39.300Z,3.10
2023-02-20T10:16:39.389Z,3.30
2023-02-20T10:17:39.293Z,2.60
2023-02-20T10:18:39.282Z,3.10
2023-02-20T10:19:39.291Z,3.40
2023-02-20T10:20:39.256Z,3.40
2023-02-20T10:21:39.250Z,3.10
2023-02-20T10:22:39.282Z,2.90
2023-02-20T10:23:39.238Z,2.80
2023-02-20T10:24:39.216Z,2.60
2023-02-20T10:25:39.248Z,2.60
2023-02-20T10:26:39.214Z,2.80
2023-02-20T10:27:39.221Z,2.90
2023-02-20T10:28:39.207Z,3.00
2023-02-20T10:29:39.193Z,3.00
2023-02-20T10:30:39.246Z,2.90
2023-02-20T10:31:39.259Z,3.00
2023-02-20T10:32:39.175Z,2.70
2023-02-20T10:33:39.160Z,2.80
2023-02-20T10:34:39.144Z,2.80
2023-02-20T10:35:39.170Z,2.70
2023-02-20T10:36:39.130Z,2.60
2023-02-20T10:37:47.353Z,3.00
2023-02-20T10:38:41.128Z,3.10
2023-02-20T10:39:39.102Z,2.80
2023-02-20T10:40:39.123Z,3.10
2023-02-20T10:41:39.101Z,2.90
2023-02-20T10:42:39.076Z,2.90
2023-02-20T10:43:39.069Z,3.00
2023-02-20T10:44:51.130Z,3.10
2023-02-20T10:45:41.074Z,2.90
2023-02-20T10:46:48.613Z,3.20
2023-02-20T10:47:41.038Z,3.10
2023-02-20T10:48:39.041Z,3.60
2023-02-20T10:49:39.026Z,3.20
2023-02-20T10:50:39.045Z,2.90
2023-02-20T10:51:39.004Z,3.00
2023-02-20T10:52:38.998Z,2.70
2023-02-20T10:53:38.999Z,3.00
2023-02-20T10:54:38.986Z,3.10
2023-02-20T10:55:38.998Z,2.80
2023-02-20T10:56:39.018Z,2.80
2023-02-20T10:57:38.962Z,2.70
2023-02-20T10:58:38.964Z,2.90
2023-02-20T10:59:38.936Z,2.80
2023-02-20T11:00:38.971Z,3.00
2023-02-20T11:01:39.015Z,2.70
2023-02-20T11:02:38.919Z,2.80
2023-02-20T11:03:38.902Z,3.30
2023-02-20T11:04:38.935Z,3.10
2023-02-20T11:05:38.915Z,3.10
2023-02-20T11:06:38.878Z,3.00
2023-02-20T11:07:38.864Z,3.20
2023-02-20T11:08:38.937Z,3.60
2023-02-20T11:09:38.902Z,3.50
2023-02-20T11:10:38.919Z,3.60
2023-02-20T11:11:38.869Z,3.30
2023-02-20T11:12:38.861Z,3.30
2023-02-20T11:13:38.858Z,3.30
2023-02-20T11:14:41.048Z,3.60
2023-02-20T11:15:39.918Z,3.60
2023-02-20T11:16:38.811Z,3.30
2023-02-20T11:17:38.783Z,3.40
2023-02-20T11:18:38.845Z,3.70
2023-02-20T11:19:38.790Z,3.80
2023-02-20T11:20:38.821Z,3.80
2023-02-20T11:21:38.774Z,3.90
2023-02-20T11:22:38.742Z,3.60
2023-02-20T11:23:38.753Z,3.70
2023-02-20T11:24:38.729Z,3.50
2023-02-20T11:25:38.728Z,3.90
2023-02-20T11:26:38.746Z,3.60
2023-02-20T11:27:38.726Z,3.70
2023-02-20T11:28:38.704Z,3.70
2023-02-20T11:29:38.711Z,4.00
2023-02-20T11:30:38.761Z,4.00
2023-02-20T11:31:38.807Z,3.80
2023-02-20T11:32:38.679Z,3.70
2023-02-20T11:33:38.671Z,3.90
2023-02-20T11:34:38.666Z,3.60
2023-02-20T11:35:38.684Z,3.90
2023-02-20T11:36:38.678Z,3.90
2023-02-20T11:37:52.841Z,3.60
2023-02-20T11:38:40.645Z,3.80
2023-02-20T11:39:38.635Z,4.10
2023-02-20T11:40:38.613Z,3.80
2023-02-20T11:41:38.642Z,3.60
2023-02-20T11:42:38.706Z,3.80
2023-02-20T11:43:43.563Z,3.70
2023-02-20T11:44:39.573Z,3.70
2023-02-20T11:45:38.606Z,3.70
2023-02-20T11:46:38.729Z,4.20
2023-02-20T11:47:38.564Z,3.90
2023-02-20T11:48:40.723Z,3.50
2023-02-20T11:49:39.544Z,3.70
2023-02-20T11:50:38.545Z,3.60
2023-02-20T11:51:38.556Z,4.00
2023-02-20T11:52:38.541Z,4.00
2023-02-20T11:53:38.505Z,3.70
2023-02-20T11:54:38.504Z,3.60
2023-02-20T11:55:39.962Z,3.70
2023-02-20T11:56:38.518Z,3.70
2023-02-20T11:57:38.485Z,3.90
2023-02-20T11:58:38.465Z,3.60
2023-02-20T11:59:38.478Z,3.40
2023-02-20T12:00:38.448Z,3.60
2023-02-20T12:01:38.490Z,3.40
2023-02-20T12:02:38.503Z,3.70
2023-02-20T12:03:38.436Z,3.60
2023-02-20T12:04:38.471Z,3.50
2023-02-20T12:05:38.463Z,3.90
2023-02-20T12:06:38.439Z,3.90
2023-02-20T12:07:38.390Z,3.90
2023-02-20T12:08:38.377Z,3.80
2023-02-20T12:09:38.370Z,3.80
2023-02-20T12:10:38.374Z,3.90
2023-02-20T12:11:38.384Z,3.50
2023-02-20T12:12:38.357Z,3.70
2023-02-20T12:13:38.361Z,3.70
2023-02-20T12:14:38.333Z,3.70
2023-02-20T12:15:38.319Z,4.00
2023-02-20T12:16:38.511Z,4.00
2023-02-20T12:17:38.312Z,3.80
2023-02-20T12:18:38.302Z,3.90
2023-02-20T12:19:38.290Z,3.80
2023-02-20T12:20:38.304Z,3.90
2023-02-20T12:21:38.307Z,3.60
2023-02-20T12:22:38.273Z,3.70
2023-02-20T12:23:38.268Z,3.80
2023-02-20T12:24:38.257Z,3.50
2023-02-20T12:25:38.239Z,3.80
2023-02-20T12:26:38.544Z,3.60
2023-02-20T12:27:39.245Z,3.50
2023-02-20T12:28:38.258Z,3.80
2023-02-20T12:29:38.219Z,4.00
2023-02-20T12:30:38.244Z,3.50
2023-02-20T12:31:38.279Z,3.30
2023-02-20T12:32:38.202Z,3.70
2023-02-20T12:33:38.188Z,3.50
2023-02-20T12:34:38.182Z,3.30
2023-02-20T12:35:38.165Z,3.80
2023-02-20T12:36:38.190Z,3.70
2023-02-20T12:37:38.179Z,3.80
2023-02-20T12:38:38.177Z,4.10
2023-02-20T12:39:38.156Z,4.00
2023-02-20T12:40:38.169Z,4.10
2023-02-20T12:41:38.197Z,3.80
2023-02-20T12:42:38.131Z,4.20
2023-02-20T12:43:38.155Z,3.90
2023-02-20T12:44:38.116Z,3.80
2023-02-20T12:45:38.126Z,4.20
2023-02-20T12:46:38.145Z,3.70
2023-02-20T12:47:38.098Z,3.80
2023-02-20T12:48:38.080Z,4.00
2023-02-20T12:49:38.073Z,4.00
2023-02-20T12:50:38.069Z,4.00
2023-02-20T12:51:38.085Z,4.30
2023-02-20T12:52:38.054Z,4.20
2023-02-20T12:53:38.067Z,3.90
2023-02-20T12:54:38.024Z,3.80
2023-02-20T12:55:38.003Z,4.90
2023-02-20T12:56:39.047Z,4.60
2023-02-20T12:57:38.008Z,4.90
2023-02-20T12:58:38.011Z,4.10
2023-02-20T12:59:37.986Z,3.50
2023-02-20T13:00:37.991Z,3.60
2023-02-20T13:01:40.564Z,3.60
2023-02-20T13:02:42.756Z,2.90
2023-02-20T13:03:38.992Z,3.30
2023-02-20T13:04:37.945Z,3.20
2023-02-20T13:05:37.999Z,3.60
2023-02-20T13:06:37.981Z,3.70
2023-02-20T13:07:37.932Z,3.20
2023-02-20T13:08:37.921Z,3.00